Time;durP1;ratioP1;P1;durP2;ratioP2;P2;SDS_P1;SDS_P2;PMS_P1;PMS_P2;Temp;Humidity;BMP_temperature;BMP_pressure;BME280_temperature;BME280_humidity;BME280_pressure;Samples;Min_cycle;Max_cycle;Signal;HPM_P1;HPM_P2
2022/07/17 00:01:47;;;;;;;3.10;3.00;;;;;;;;;;5015890;28;20860;-68
2022/07/17 00:04:13;;;;;;;4.90;3.83;;;;;;;;;;5015804;28;20927;-69
2022/07/17 00:06:39;;;;;;;3.80;3.13;;;;;;;;;;5015754;28;20402;-68
2022/07/17 00:09:06;;;;;;;5.87;3.37;;;;;;;;;;5015721;28;20833;-66
2022/07/17 00:11:32;;;;;;;4.43;3.30;;;;;;;;;;5015669;28;20456;-66
2022/07/17 00:13:58;;;;;;;4.60;3.30;;;;;;;;;;5015568;28;20410;-69
2022/07/17 00:16:24;;;;;;;3.17;2.97;;;;;;;;;;5015729;28;20474;-68
2022/07/17 00:18:50;;;;;;;3.80;2.90;;;;;;;;;;5015525;28;20401;-68
2022/07/17 00:21:17;;;;;;;3.30;3.10;;;;;;;;;;5015532;28;20447;-68
2022/07/17 00:23:43;;;;;;;3.43;3.30;;;;;;;;;;5015790;28;20397;-69
2022/07/17 00:26:09;;;;;;;3.00;2.90;;;;;;;;;;5015620;28;20416;-68
2022/07/17 00:28:35;;;;;;;6.97;3.13;;;;;;;;;;5015331;28;20817;-68
2022/07/17 00:31:01;;;;;;;3.43;3.20;;;;;;;;;;5015252;28;20425;-69
2022/07/17 00:33:27;;;;;;;2.90;2.80;;;;;;;;;;5015307;28;20432;-67
2022/07/17 00:35:52;;;;;;;3.00;2.50;;;;;;;;;;5015148;28;20485;-69
2022/07/17 00:38:18;;;;;;;3.30;3.00;;;;;;;;;;5015236;28;20415;-68
2022/07/17 00:40:44;;;;;;;7.40;3.50;;;;;;;;;;5015113;28;20444;-67
2022/07/17 00:43:10;;;;;;;3.70;3.40;;;;;;;;;;5014414;28;20405;-67
2022/07/17 00:45:36;;;;;;;3.23;2.80;;;;;;;;;;5014776;28;20432;-67
2022/07/17 00:48:04;;;;;;;6.70;3.07;;;;;;;;;;5014892;28;20495;-68
2022/07/17 00:50:32;;;;;;;11.20;3.53;;;;;;;;;;5014900;28;20431;-67
2022/07/17 00:52:58;;;;;;;3.83;3.00;;;;;;;;;;5014942;28;20419;-67
2022/07/17 00:55:24;;;;;;;3.00;2.87;;;;;;;;;;5014811;28;20495;-68
2022/07/17 00:57:51;;;;;;;3.43;3.23;;;;;;;;;;5015108;28;20415;-68
2022/07/17 01:00:18;;;;;;;3.60;3.50;;;;;;;;;;5014818;28;20769;-67
2022/07/17 01:02:45;;;;;;;2.87;2.77;;;;;;;;;;5014795;28;20411;-68
2022/07/17 01:05:11;;;;;;;3.13;2.93;;;;;;;;;;5014700;28;20412;-66
2022/07/17 01:07:37;;;;;;;2.93;2.83;;;;;;;;;;5014711;28;20529;-69
2022/07/17 01:10:03;;;;;;;5.73;3.47;;;;;;;;;;5014652;28;20752;-68
2022/07/17 01:12:30;;;;;;;3.90;2.80;;;;;;;;;;5014533;28;20521;-68
2022/07/17 01:14:57;;;;;;;4.90;3.40;;;;;;;;;;5014366;28;20466;-68
2022/07/17 01:17:24;;;;;;;3.20;3.00;;;;;;;;;;5014577;28;20885;-69
2022/07/17 01:19:50;;;;;;;3.40;3.10;;;;;;;;;;5014691;28;20416;-69
2022/07/17 01:22:16;;;;;;;7.40;3.00;;;;;;;;;;5014674;28;20755;-68
2022/07/17 01:24:42;;;;;;;4.03;3.37;;;;;;;;;;5014395;28;20415;-68
2022/07/17 01:27:08;;;;;;;3.60;3.30;;;;;;;;;;5014313;28;20421;-68
2022/07/17 01:29:38;;;;;;;3.20;2.90;;;;;;;;;;5014327;28;20942;-67
2022/07/17 01:32:04;;;;;;;3.20;3.00;;;;;;;;;;5014181;28;20756;-68
2022/07/17 01:34:30;;;;;;;3.47;3.27;;;;;;;;;;5014081;28;20418;-66
2022/07/17 01:36:56;;;;;;;3.17;2.97;;;;;;;;;;5014209;28;20528;-67
2022/07/17 01:39:52;;;;;;;3.70;3.43;;;;;;;;;;5014116;28;20507;-68
2022/07/17 01:42:08;;;;;;;4.87;2.70;;;;;;;;;;5013880;28;20525;-69
2022/07/17 01:44:34;;;;;;;3.43;3.03;;;;;;;;;;5014135;28;20827;-68
2022/07/17 01:47:01;;;;;;;3.40;3.23;;;;;;;;;;5014094;28;20423;-67
2022/07/17 01:49:26;;;;;;;3.43;3.23;;;;;;;;;;5013809;28;21078;-68
2022/07/17 01:51:52;;;;;;;3.23;3.10;;;;;;;;;;5013967;28;20513;-68
2022/07/17 01:54:18;;;;;;;10.13;3.57;;;;;;;;;;5013706;28;20544;-68
2022/07/17 01:56:44;;;;;;;3.37;3.27;;;;;;;;;;5013735;28;20474;-66
2022/07/17 01:59:10;;;;;;;3.20;3.00;;;;;;;;;;5013782;28;20467;-68
2022/07/17 02:01:36;;;;;;;4.83;3.50;;;;;;;;;;5013845;28;20422;-68
2022/07/17 02:04:02;;;;;;;4.10;3.53;;;;;;;;;;5013892;28;20397;-66
2022/07/17 02:06:28;;;;;;;3.20;3.10;;;;;;;;;;5013726;28;20417;-67
2022/07/17 02:08:54;;;;;;;4.73;3.90;;;;;;;;;;5013748;28;20413;-67
2022/07/17 02:11:20;;;;;;;3.70;3.27;;;;;;;;;;5013737;28;20396;-68
2022/07/17 02:13:46;;;;;;;4.20;3.30;;;;;;;;;;5013654;28;20496;-68
2022/07/17 02:16:12;;;;;;;9.63;3.63;;;;;;;;;;5013571;28;20472;-68
2022/07/17 02:18:38;;;;;;;4.13;3.83;;;;;;;;;;5013658;28;20889;-63
2022/07/17 02:21:04;;;;;;;4.07;3.60;;;;;;;;;;4995976;28;20835;-67
2022/07/17 02:23:30;;;;;;;3.70;3.50;;;;;;;;;;5013593;28;20503;-67
2022/07/17 02:25:56;;;;;;;3.30;3.20;;;;;;;;;;5013836;28;20425;-68
2022/07/17 02:28:22;;;;;;;3.40;3.30;;;;;;;;;;5013582;28;20424;-68
2022/07/17 02:30:48;;;;;;;3.50;3.40;;;;;;;;;;5013547;28;20435;-68
2022/07/17 02:33:14;;;;;;;3.80;3.57;;;;;;;;;;5013536;28;20435;-68
2022/07/17 02:35:40;;;;;;;3.53;3.33;;;;;;;;;;5013524;28;21017;-68
2022/07/17 02:38:06;;;;;;;3.53;3.33;;;;;;;;;;5013463;28;20404;-69
2022/07/17 02:40:32;;;;;;;3.90;3.80;;;;;;;;;;5013523;28;20817;-68
2022/07/17 02:42:58;;;;;;;4.70;3.87;;;;;;;;;;5013731;28;20829;-66
2022/07/17 02:45:24;;;;;;;4.00;3.70;;;;;;;;;;5013408;28;20514;-68
2022/07/17 02:47:51;;;;;;;3.40;3.30;;;;;;;;;;5013272;28;20823;-68
2022/07/17 02:50:17;;;;;;;7.63;3.67;;;;;;;;;;5013325;28;20436;-67
2022/07/17 02:52:43;;;;;;;3.63;3.53;;;;;;;;;;5013352;28;20403;-68
2022/07/17 02:55:10;;;;;;;3.90;3.70;;;;;;;;;;4995577;28;20496;-68
2022/07/17 02:57:36;;;;;;;6.10;4.00;;;;;;;;;;5013374;28;20487;-68
2022/07/17 03:00:03;;;;;;;3.80;3.60;;;;;;;;;;5013274;28;20409;-67
2022/07/17 03:02:29;;;;;;;5.03;3.60;;;;;;;;;;5013224;28;20416;-68
2022/07/17 03:04:55;;;;;;;3.47;3.10;;;;;;;;;;5013297;28;20426;-66
2022/07/17 03:07:21;;;;;;;5.73;3.20;;;;;;;;;;5014906;28;20417;-69
2022/07/17 03:09:47;;;;;;;3.93;3.07;;;;;;;;;;5016847;28;20780;-68
2022/07/17 03:12:13;;;;;;;3.93;3.60;;;;;;;;;;5016819;28;20415;-67
2022/07/17 03:14:39;;;;;;;4.40;3.50;;;;;;;;;;5016619;28;20420;-67
2022/07/17 03:17:05;;;;;;;3.70;3.13;;;;;;;;;;5016743;28;20425;-69
2022/07/17 03:19:31;;;;;;;4.97;3.20;;;;;;;;;;5016732;28;20879;-67
2022/07/17 03:21:57;;;;;;;3.10;2.90;;;;;;;;;;5016645;28;20413;-69
2022/07/17 03:24:23;;;;;;;4.83;3.90;;;;;;;;;;5016880;28;20409;-68
2022/07/17 03:26:49;;;;;;;3.00;2.90;;;;;;;;;;5016538;28;20435;-65
2022/07/17 03:29:17;;;;;;;2.90;2.70;;;;;;;;;;5016579;28;20411;-68
2022/07/17 03:31:43;;;;;;;2.80;2.60;;;;;;;;;;5016526;28;20431;-68
2022/07/17 03:34:09;;;;;;;3.57;3.27;;;;;;;;;;5016430;28;20404;-68
2022/07/17 03:36:35;;;;;;;3.03;2.90;;;;;;;;;;5016323;28;21032;-68
2022/07/17 03:39:01;;;;;;;3.43;3.20;;;;;;;;;;5016370;28;20405;-68
2022/07/17 03:41:27;;;;;;;3.50;3.30;;;;;;;;;;5016274;28;20852;-67
2022/07/17 03:43:54;;;;;;;3.50;3.40;;;;;;;;;;5016180;28;20408;-68
2022/07/17 03:46:20;;;;;;;3.20;3.10;;;;;;;;;;5016418;28;20501;-68
2022/07/17 03:48:46;;;;;;;3.20;2.90;;;;;;;;;;5015954;28;20511;-68
2022/07/17 03:51:12;;;;;;;4.30;3.30;;;;;;;;;;5016065;28;20434;-68
2022/07/17 03:53:38;;;;;;;2.90;2.80;;;;;;;;;;5016310;28;20496;-68
2022/07/17 03:56:04;;;;;;;3.30;3.20;;;;;;;;;;5015899;28;20470;-68
2022/07/17 03:58:31;;;;;;;5.67;3.17;;;;;;;;;;5015881;28;20966;-69
2022/07/17 04:00:57;;;;;;;3.30;3.13;;;;;;;;;;5016092;28;20808;-69
2022/07/17 04:03:23;;;;;;;4.00;3.47;;;;;;;;;;5015855;28;20403;-68
2022/07/17 04:05:49;;;;;;;3.50;3.20;;;;;;;;;;5015884;28;20819;-66
2022/07/17 04:08:16;;;;;;;3.77;3.00;;;;;;;;;;5015840;28;20408;-68
2022/07/17 04:10:42;;;;;;;3.50;3.30;;;;;;;;;;5015824;28;20420;-67
2022/07/17 04:13:08;;;;;;;4.60;3.13;;;;;;;;;;5015612;28;20410;-66
2022/07/17 04:15:49;;;;;;;3.97;3.30;;;;;;;;;;5015584;28;20482;-68
2022/07/17 04:18:16;;;;;;;5.00;3.83;;;;;;;;;;5015413;28;20404;-68
2022/07/17 04:20:42;;;;;;;3.00;2.90;;;;;;;;;;5015585;28;20415;-68
2022/07/17 04:23:08;;;;;;;2.80;2.70;;;;;;;;;;5015755;28;20407;-68
2022/07/17 04:25:34;;;;;;;2.93;2.73;;;;;;;;;;5015756;28;20415;-68
2022/07/17 04:28:00;;;;;;;3.30;3.10;;;;;;;;;;5015469;28;20400;-68
2022/07/17 04:30:26;;;;;;;2.93;2.63;;;;;;;;;;5015585;28;20412;-66
2022/07/17 04:32:52;;;;;;;3.80;3.00;;;;;;;;;;5015505;28;20957;-68
2022/07/17 04:35:18;;;;;;;3.07;2.87;;;;;;;;;;5015227;28;20468;-69
2022/07/17 04:37:44;;;;;;;3.30;3.20;;;;;;;;;;5015284;28;20414;-68
2022/07/17 04:40:11;;;;;;;5.97;3.17;;;;;;;;;;5015193;28;20470;-67
2022/07/17 04:42:37;;;;;;;2.67;2.67;;;;;;;;;;5015162;28;20775;-68
2022/07/17 04:45:03;;;;;;;2.90;2.70;;;;;;;;;;5015097;28;20420;-65
2022/07/17 04:47:29;;;;;;;3.40;3.20;;;;;;;;;;5014850;28;20957;-68
2022/07/17 04:49:55;;;;;;;3.77;2.77;;;;;;;;;;5015307;28;20428;-67
2022/07/17 04:52:21;;;;;;;2.70;2.60;;;;;;;;;;5014941;28;20415;-68
2022/07/17 04:54:47;;;;;;;2.60;2.40;;;;;;;;;;5015091;28;20415;-66
2022/07/17 04:57:13;;;;;;;2.77;2.67;;;;;;;;;;5014899;28;20417;-68
2022/07/17 04:59:39;;;;;;;3.00;2.67;;;;;;;;;;5014786;28;20434;-69
2022/07/17 05:02:05;;;;;;;2.97;2.77;;;;;;;;;;5014790;28;20420;-68
2022/07/17 05:04:31;;;;;;;3.10;3.00;;;;;;;;;;5014750;28;20420;-68
2022/07/17 05:06:57;;;;;;;7.30;3.20;;;;;;;;;;5014926;28;20412;-66
2022/07/17 05:09:23;;;;;;;3.33;3.13;;;;;;;;;;5014675;28;20482;-64
2022/07/17 05:11:49;;;;;;;3.10;2.40;;;;;;;;;;5014584;28;20914;-67
2022/07/17 05:14:15;;;;;;;5.10;3.20;;;;;;;;;;5014582;28;20506;-62
2022/07/17 05:16:41;;;;;;;5.07;2.80;;;;;;;;;;5014478;28;20977;-62
2022/07/17 05:19:07;;;;;;;2.77;2.67;;;;;;;;;;5014496;28;20485;-61
2022/07/17 05:21:33;;;;;;;2.83;2.73;;;;;;;;;;5014751;28;20449;-62
2022/07/17 05:23:59;;;;;;;3.77;2.77;;;;;;;;;;5014421;28;20863;-62
2022/07/17 05:26:25;;;;;;;3.10;2.43;;;;;;;;;;5014438;28;20404;-61
2022/07/17 05:28:51;;;;;;;4.17;2.67;;;;;;;;;;5014374;28;20408;-62
2022/07/17 05:31:17;;;;;;;2.90;2.80;;;;;;;;;;5013778;28;20904;-61
2022/07/17 05:33:43;;;;;;;4.07;2.90;;;;;;;;;;5014307;28;20413;-61
2022/07/17 05:36:09;;;;;;;4.30;3.00;;;;;;;;;;5014124;28;20473;-62
2022/07/17 05:38:35;;;;;;;35.70;25.53;;;;;;;;;;5014196;28;20415;-63
2022/07/17 05:41:01;;;;;;;6.03;5.13;;;;;;;;;;5014343;28;20454;-64
2022/07/17 05:43:27;;;;;;;6.43;5.20;;;;;;;;;;5014076;28;20414;-62
2022/07/17 05:45:54;;;;;;;5.20;4.90;;;;;;;;;;5014044;28;20417;-65
2022/07/17 05:48:21;;;;;;;3.30;3.20;;;;;;;;;;5013857;28;20476;-62
2022/07/17 05:50:47;;;;;;;2.97;2.77;;;;;;;;;;5013931;28;20409;-61
2022/07/17 05:53:14;;;;;;;4.93;4.40;;;;;;;;;;4996357;28;20967;-62
2022/07/17 05:55:40;;;;;;;3.30;3.20;;;;;;;;;;5013862;28;20529;-62
2022/07/17 05:58:06;;;;;;;3.13;3.00;;;;;;;;;;5013861;28;20404;-62
2022/07/17 06:00:32;;;;;;;3.33;2.70;;;;;;;;;;5013764;28;20520;-62
2022/07/17 06:02:58;;;;;;;3.67;3.57;;;;;;;;;;5013708;28;20928;-63
2022/07/17 06:05:26;;;;;;;2.87;2.77;;;;;;;;;;5013778;28;20424;-62
2022/07/17 06:07:52;;;;;;;2.67;2.57;;;;;;;;;;5013821;28;20390;-64
2022/07/17 06:10:18;;;;;;;2.60;2.50;;;;;;;;;;5013716;28;20417;-63
2022/07/17 06:12:44;;;;;;;4.20;2.83;;;;;;;;;;5013662;28;20394;-67
2022/07/17 06:15:10;;;;;;;4.23;3.80;;;;;;;;;;5013484;28;20547;-64
2022/07/17 06:17:36;;;;;;;6.80;6.30;;;;;;;;;;5013697;28;20496;-64
2022/07/17 06:20:02;;;;;;;4.40;4.20;;;;;;;;;;5013658;28;20460;-65
2022/07/17 06:22:28;;;;;;;2.90;2.80;;;;;;;;;;5013631;28;20413;-66
2022/07/17 06:24:54;;;;;;;4.27;4.07;;;;;;;;;;5013515;28;20957;-64
2022/07/17 06:27:20;;;;;;;3.67;3.47;;;;;;;;;;5013504;28;20410;-64
2022/07/17 06:29:47;;;;;;;4.20;2.97;;;;;;;;;;5013451;28;20418;-63
2022/07/17 06:32:13;;;;;;;10.63;4.30;;;;;;;;;;5013524;28;20479;-66
2022/07/17 06:34:39;;;;;;;7.23;2.70;;;;;;;;;;5013329;28;20900;-64
2022/07/17 06:37:05;;;;;;;3.03;2.83;;;;;;;;;;5013442;28;20454;-64
2022/07/17 06:39:31;;;;;;;2.83;2.50;;;;;;;;;;5013382;28;20486;-65
2022/07/17 06:41:57;;;;;;;4.37;3.97;;;;;;;;;;5014122;28;20528;-70
2022/07/17 06:44:23;;;;;;;7.30;4.47;;;;;;;;;;5017318;28;20497;-69
2022/07/17 06:46:49;;;;;;;4.50;3.27;;;;;;;;;;5017251;28;20414;-65
2022/07/17 06:49:15;;;;;;;10.83;4.30;;;;;;;;;;5017044;28;20988;-70
2022/07/17 06:51:41;;;;;;;18.43;2.70;;;;;;;;;;5017208;28;20421;-69
2022/07/17 06:54:07;;;;;;;3.17;2.93;;;;;;;;;;5017202;28;20399;-69
2022/07/17 06:56:33;;;;;;;8.40;3.07;;;;;;;;;;5017076;28;20565;-67
2022/07/17 06:58:59;;;;;;;3.27;2.97;;;;;;;;;;5017054;28;20489;-69
2022/07/17 07:01:25;;;;;;;2.77;2.60;;;;;;;;;;5017003;28;20418;-70
2022/07/17 07:03:51;;;;;;;3.67;2.60;;;;;;;;;;5017011;28;20468;-70
2022/07/17 07:06:17;;;;;;;2.70;2.60;;;;;;;;;;5017021;28;20413;-71
2022/07/17 07:08:43;;;;;;;2.50;2.40;;;;;;;;;;5016895;28;20401;-65
2022/07/17 07:11:09;;;;;;;7.40;2.70;;;;;;;;;;5016826;28;20772;-72
2022/07/17 07:13:35;;;;;;;5.40;2.80;;;;;;;;;;5016801;28;20404;-76
2022/07/17 07:16:02;;;;;;;5.23;2.60;;;;;;;;;;5016669;28;20473;-75
2022/07/17 07:18:28;;;;;;;3.73;2.70;;;;;;;;;;5016871;28;20464;-69
2022/07/17 07:20:54;;;;;;;3.67;3.23;;;;;;;;;;5016932;28;20971;-73
2022/07/17 07:23:20;;;;;;;3.27;2.40;;;;;;;;;;5016718;28;20407;-75
2022/07/17 07:25:46;;;;;;;2.80;2.60;;;;;;;;;;5016552;28;20422;-71
2022/07/17 07:28:12;;;;;;;8.83;2.33;;;;;;;;;;5016589;28;20409;-72
2022/07/17 07:30:38;;;;;;;2.13;2.03;;;;;;;;;;5016478;28;20424;-73
2022/07/17 07:33:04;;;;;;;2.30;2.20;;;;;;;;;;5016501;28;20405;-72
2022/07/17 07:35:30;;;;;;;7.57;2.60;;;;;;;;;;5016327;28;20464;-73
2022/07/17 07:37:56;;;;;;;3.00;2.90;;;;;;;;;;5016447;28;20501;-72
2022/07/17 07:40:22;;;;;;;2.37;2.37;;;;;;;;;;5016427;28;20492;-73
2022/07/17 07:42:48;;;;;;;3.27;2.97;;;;;;;;;;4998762;28;20523;-72
2022/07/17 07:45:14;;;;;;;2.40;2.30;;;;;;;;;;4998648;28;20417;-72
2022/07/17 07:47:41;;;;;;;5.07;2.73;;;;;;;;;;5016108;28;20470;-71
2022/07/17 07:50:07;;;;;;;5.10;2.80;;;;;;;;;;5016407;28;20444;-71
2022/07/17 07:52:33;;;;;;;2.53;2.43;;;;;;;;;;5015579;28;20401;-72
2022/07/17 07:54:59;;;;;;;3.97;3.10;;;;;;;;;;4998407;28;20468;-72
2022/07/17 07:57:25;;;;;;;2.40;2.30;;;;;;;;;;5016040;28;21020;-72
2022/07/17 07:59:51;;;;;;;2.20;2.20;;;;;;;;;;4998379;28;20905;-72
2022/07/17 08:02:17;;;;;;;6.87;2.57;;;;;;;;;;5015912;28;20418;-72
2022/07/17 08:04:43;;;;;;;3.00;2.70;;;;;;;;;;5015953;28;20569;-72
2022/07/17 08:07:09;;;;;;;4.77;2.60;;;;;;;;;;5016118;28;20422;-73
2022/07/17 08:09:35;;;;;;;10.37;2.27;;;;;;;;;;5015894;28;20409;-72
2022/07/17 08:12:01;;;;;;;7.20;2.27;;;;;;;;;;5015752;28;20511;-72
2022/07/17 08:14:26;;;;;;;2.60;2.40;;;;;;;;;;5015665;28;20402;-73
2022/07/17 08:16:52;;;;;;;2.90;2.60;;;;;;;;;;5015660;28;21000;-74
2022/07/17 08:19:18;;;;;;;3.37;2.67;;;;;;;;;;5015610;28;20479;-70
2022/07/17 08:21:44;;;;;;;3.03;2.80;;;;;;;;;;5015464;28;20446;-69
2022/07/17 08:24:10;;;;;;;3.13;2.57;;;;;;;;;;5015537;28;20408;-70
2022/07/17 08:26:36;;;;;;;3.07;2.87;;;;;;;;;;5015401;28;20412;-71
2022/07/17 08:29:02;;;;;;;5.10;2.97;;;;;;;;;;5015390;28;20416;-70
2022/07/17 08:31:28;;;;;;;2.50;2.40;;;;;;;;;;5015287;28;20435;-70
2022/07/17 08:33:54;;;;;;;2.73;2.63;;;;;;;;;;5015439;28;20428;-69
2022/07/17 08:36:20;;;;;;;3.10;2.90;;;;;;;;;;5015201;28;20558;-69
2022/07/17 08:38:46;;;;;;;3.43;3.33;;;;;;;;;;5015322;28;20411;-69
2022/07/17 08:41:16;;;;;;;2.73;2.53;;;;;;;;;;5015163;28;20500;-69
2022/07/17 08:43:42;;;;;;;3.47;2.63;;;;;;;;;;5015141;28;20447;-68
2022/07/17 08:46:10;;;;;;;6.00;2.70;;;;;;;;;;5014796;28;20862;-70
2022/07/17 08:48:38;;;;;;;2.87;2.67;;;;;;;;;;5014838;28;20479;-69
2022/07/17 08:51:04;;;;;;;2.60;2.40;;;;;;;;;;5014952;28;20456;-68
2022/07/17 08:53:30;;;;;;;3.80;2.70;;;;;;;;;;5015009;28;20399;-68
2022/07/17 08:55:56;;;;;;;3.23;2.63;;;;;;;;;;4997224;28;20487;-70
2022/07/17 08:58:22;;;;;;;2.97;2.77;;;;;;;;;;5014951;28;20404;-68
2022/07/17 09:00:49;;;;;;;2.77;2.57;;;;;;;;;;4997222;28;20963;-68
2022/07/17 09:03:17;;;;;;;2.90;2.50;;;;;;;;;;5014892;28;20416;-68
2022/07/17 09:05:43;;;;;;;2.43;2.33;;;;;;;;;;5013896;28;20506;-68
2022/07/17 09:08:10;;;;;;;2.23;2.13;;;;;;;;;;5011512;28;20510;-68
2022/07/17 09:10:40;;;;;;;3.17;2.73;;;;;;;;;;5012129;28;20837;-69
2022/07/17 09:13:20;;;;;;;2.93;2.73;;;;;;;;;;5012025;28;20430;-70
2022/07/17 09:15:47;;;;;;;2.63;2.43;;;;;;;;;;5011596;28;20472;-67
2022/07/17 09:18:13;;;;;;;4.60;2.40;;;;;;;;;;5011897;28;20505;-69
2022/07/17 09:21:00;;;;;;;5.67;3.10;;;;;;;;;;5011760;28;20507;-69
2022/07/17 09:23:27;;;;;;;2.43;2.33;;;;;;;;;;5011493;28;20574;-69
2022/07/17 09:28:47;;;;;;;2.47;2.37;;;;;;;;;;4994813;28;20419;-69
2022/07/17 09:31:14;;;;;;;2.03;2.03;;;;;;;;;;5011437;28;20436;-72
2022/07/17 09:33:40;;;;;;;3.77;2.37;;;;;;;;;;5011275;28;20885;-78
2022/07/17 09:36:08;;;;;;;2.30;2.20;;;;;;;;;;5011582;28;20469;-76
2022/07/17 09:38:36;;;;;;;2.20;2.10;;;;;;;;;;5011633;28;20410;-70
2022/07/17 09:41:11;;;;;;;3.00;2.73;;;;;;;;;;5011116;28;20511;-67
2022/07/17 09:43:44;;;;;;;2.70;2.60;;;;;;;;;;4993715;28;20426;-70
2022/07/17 09:46:10;;;;;;;5.80;2.50;;;;;;;;;;5010023;28;20515;-70
2022/07/17 09:48:41;;;;;;;2.37;2.20;;;;;;;;;;5011325;28;20814;-69
2022/07/17 09:51:08;;;;;;;4.00;2.47;;;;;;;;;;4993677;28;20442;-70
2022/07/17 09:53:36;;;;;;;2.23;2.13;;;;;;;;;;5011383;28;20412;-69
2022/07/17 09:56:04;;;;;;;2.80;2.60;;;;;;;;;;5011355;28;20873;-70
2022/07/17 09:58:31;;;;;;;4.47;2.30;;;;;;;;;;5011045;28;20463;-71
2022/07/17 10:00:59;;;;;;;2.20;2.00;;;;;;;;;;5010877;28;20467;-69
2022/07/17 10:03:25;;;;;;;2.27;2.17;;;;;;;;;;4993489;28;20428;-69
2022/07/17 10:05:51;;;;;;;8.33;2.30;;;;;;;;;;5011314;28;20500;-69
2022/07/17 10:08:17;;;;;;;2.87;2.67;;;;;;;;;;5011029;28;20522;-68
2022/07/17 10:10:43;;;;;;;4.53;2.73;;;;;;;;;;5010912;28;20433;-71
2022/07/17 10:13:10;;;;;;;7.33;2.70;;;;;;;;;;5011147;28;20451;-69
2022/07/17 10:15:36;;;;;;;1.67;1.63;;;;;;;;;;4993322;28;20472;-69
2022/07/17 10:18:05;;;;;;;6.77;2.57;;;;;;;;;;5011200;28;20426;-70
2022/07/17 10:20:31;;;;;;;2.87;2.67;;;;;;;;;;5010628;28;20501;-71
2022/07/17 10:22:57;;;;;;;2.27;2.20;;;;;;;;;;5010869;28;20755;-69
2022/07/17 10:25:23;;;;;;;3.03;2.63;;;;;;;;;;4993521;28;20435;-70
2022/07/17 10:27:51;;;;;;;3.80;2.63;;;;;;;;;;5011127;28;20424;-69
2022/07/17 10:30:27;;;;;;;3.20;2.50;;;;;;;;;;5010733;28;20431;-69
2022/07/17 10:32:54;;;;;;;2.43;2.33;;;;;;;;;;5010801;28;20423;-71
2022/07/17 10:35:20;;;;;;;5.17;2.27;;;;;;;;;;5011096;28;20531;-71
2022/07/17 10:37:46;;;;;;;4.43;2.23;;;;;;;;;;5010756;28;20420;-70
2022/07/17 10:40:12;;;;;;;2.70;2.50;;;;;;;;;;5010718;28;20426;-70
2022/07/17 10:42:38;;;;;;;2.83;2.47;;;;;;;;;;5010930;28;20805;-70
2022/07/17 10:45:11;;;;;;;3.60;2.37;;;;;;;;;;5010535;28;20428;-73
2022/07/17 10:47:44;;;;;;;4.93;2.60;;;;;;;;;;5011250;28;20227;-74
2022/07/17 10:50:11;;;;;;;2.03;1.93;;;;;;;;;;5010483;28;20490;-71
2022/07/17 10:52:37;;;;;;;4.20;1.90;;;;;;;;;;5010780;28;20415;-67
2022/07/17 10:55:05;;;;;;;2.17;2.07;;;;;;;;;;5010495;28;20425;-72
2022/07/17 10:57:31;;;;;;;2.33;2.23;;;;;;;;;;5010678;28;20437;-71
2022/07/17 10:59:57;;;;;;;2.03;1.93;;;;;;;;;;5010455;28;20428;-71
2022/07/17 11:02:30;;;;;;;2.40;2.30;;;;;;;;;;5010769;28;20428;-71
2022/07/17 11:05:06;;;;;;;4.10;1.90;;;;;;;;;;5010450;28;20420;-72
2022/07/17 11:07:32;;;;;;;2.47;2.27;;;;;;;;;;5010533;28;20961;-71
2022/07/17 11:09:58;;;;;;;2.43;2.33;;;;;;;;;;4992935;28;20447;-71
2022/07/17 11:12:31;;;;;;;2.40;2.30;;;;;;;;;;5010733;28;20916;-69
2022/07/17 11:15:01;;;;;;;2.60;2.40;;;;;;;;;;5010353;28;20507;-70
2022/07/17 11:17:27;;;;;;;2.50;2.33;;;;;;;;;;5010430;28;20504;-70
2022/07/17 11:19:53;;;;;;;1.83;1.83;;;;;;;;;;5010774;28;20417;-71
2022/07/17 11:22:22;;;;;;;5.40;2.83;;;;;;;;;;5010589;28;20455;-72
2022/07/17 11:24:49;;;;;;;5.00;2.30;;;;;;;;;;5010116;28;20432;-71
2022/07/17 11:27:22;;;;;;;2.00;1.80;;;;;;;;;;5010325;28;20931;-69
2022/07/17 11:29:49;;;;;;;2.07;2.00;;;;;;;;;;5013579;28;20417;-71
2022/07/17 11:32:15;;;;;;;3.03;2.27;;;;;;;;;;5013740;28;20456;-73
2022/07/17 11:34:41;;;;;;;2.30;2.10;;;;;;;;;;4996314;28;20560;-71
2022/07/17 11:37:08;;;;;;;4.60;2.30;;;;;;;;;;5013543;28;20514;-71
2022/07/17 11:39:52;;;;;;;2.50;1.93;;;;;;;;;;5013695;28;20560;-73
2022/07/17 11:42:22;;;;;;;2.47;2.27;;;;;;;;;;5013493;28;20421;-68
2022/07/17 11:44:52;;;;;;;2.17;1.97;;;;;;;;;;5013345;28;20450;-70
2022/07/17 11:47:22;;;;;;;1.87;1.77;;;;;;;;;;4995736;28;20962;-71
2022/07/17 11:49:49;;;;;;;2.37;2.20;;;;;;;;;;5013565;28;20427;-70
2022/07/17 11:52:17;;;;;;;3.80;2.13;;;;;;;;;;5013921;28;20441;-72
2022/07/17 11:54:56;;;;;;;9.53;2.20;;;;;;;;;;5016106;28;20499;-70
2022/07/17 11:57:23;;;;;;;2.80;2.00;;;;;;;;;;5016321;28;20448;-69
2022/07/17 11:59:49;;;;;;;2.50;1.67;;;;;;;;;;4998251;28;20931;-70
2022/07/17 12:02:17;;;;;;;1.97;1.80;;;;;;;;;;5016034;28;20514;-72
2022/07/17 12:04:54;;;;;;;2.40;1.50;;;;;;;;;;5015968;28;20405;-70
2022/07/17 12:07:20;;;;;;;4.67;1.90;;;;;;;;;;5015849;28;20405;-71
2022/07/17 12:09:46;;;;;;;2.13;2.03;;;;;;;;;;5015804;28;20405;-70
2022/07/17 12:12:39;;;;;;;2.50;2.30;;;;;;;;;;5015808;28;20932;-69
2022/07/17 12:15:06;;;;;;;13.63;2.00;;;;;;;;;;5013562;28;20784;-70
2022/07/17 12:17:39;;;;;;;3.63;2.00;;;;;;;;;;5015889;28;20405;-69
2022/07/17 12:20:06;;;;;;;2.40;2.03;;;;;;;;;;5015641;28;20416;-68
2022/07/17 12:22:42;;;;;;;2.60;1.93;;;;;;;;;;5015539;28;20401;-69
2022/07/17 12:25:08;;;;;;;2.30;2.20;;;;;;;;;;5015599;28;20405;-69
2022/07/17 12:27:34;;;;;;;2.90;2.40;;;;;;;;;;5015508;28;20405;-70
2022/07/17 12:30:00;;;;;;;1.97;1.93;;;;;;;;;;4997706;28;20515;-72
2022/07/17 12:32:26;;;;;;;2.17;2.00;;;;;;;;;;5015433;28;20167;-72
2022/07/17 12:34:53;;;;;;;1.83;1.73;;;;;;;;;;4997853;28;20171;-70
2022/07/17 12:37:20;;;;;;;1.90;1.90;;;;;;;;;;5015323;28;20252;-72
2022/07/17 12:39:47;;;;;;;3.70;1.83;;;;;;;;;;5015160;28;20440;-71
2022/07/17 12:42:13;;;;;;;2.63;2.43;;;;;;;;;;5015476;28;20405;-72
2022/07/17 12:44:39;;;;;;;7.90;2.20;;;;;;;;;;5015265;28;20424;-71
2022/07/17 12:47:05;;;;;;;2.30;2.07;;;;;;;;;;5015341;28;20428;-71
2022/07/17 12:49:32;;;;;;;2.20;2.20;;;;;;;;;;5014852;28;20460;-72
2022/07/17 12:51:58;;;;;;;2.03;2.03;;;;;;;;;;5014984;28;20412;-72
2022/07/17 12:54:24;;;;;;;2.00;2.00;;;;;;;;;;4997434;28;20484;-68
2022/07/17 12:56:50;;;;;;;2.00;1.90;;;;;;;;;;5014942;28;20468;-71
2022/07/17 12:59:16;;;;;;;1.80;1.70;;;;;;;;;;5014944;28;20820;-69
2022/07/17 13:01:42;;;;;;;3.27;1.73;;;;;;;;;;4997329;28;20527;-70
2022/07/17 13:04:08;;;;;;;5.40;1.87;;;;;;;;;;5014873;28;20492;-71
2022/07/17 13:06:34;;;;;;;2.00;1.90;;;;;;;;;;5014838;28;20429;-72
2022/07/17 13:09:00;;;;;;;2.83;1.63;;;;;;;;;;5014676;28;20416;-71
2022/07/17 13:11:27;;;;;;;4.47;1.60;;;;;;;;;;5014679;28;20264;-71
2022/07/17 13:13:53;;;;;;;2.73;1.90;;;;;;;;;;5014674;28;20405;-69
2022/07/17 13:16:19;;;;;;;1.90;1.90;;;;;;;;;;5014461;28;20475;-70
2022/07/17 13:18:45;;;;;;;1.80;1.80;;;;;;;;;;5014694;28;20500;-70
2022/07/17 13:21:11;;;;;;;6.80;2.10;;;;;;;;;;5014453;28;20424;-70
2022/07/17 13:23:37;;;;;;;1.80;1.80;;;;;;;;;;5014453;28;20405;-71
2022/07/17 13:26:03;;;;;;;4.93;1.97;;;;;;;;;;5014466;28;20540;-70
2022/07/17 13:28:30;;;;;;;1.90;1.80;;;;;;;;;;5014398;28;20451;-68
2022/07/17 13:30:56;;;;;;;1.97;1.87;;;;;;;;;;5014301;28;20851;-71
2022/07/17 13:33:23;;;;;;;2.07;2.00;;;;;;;;;;5014289;28;20402;-71
2022/07/17 13:35:49;;;;;;;5.17;1.90;;;;;;;;;;4996584;28;20456;-70
2022/07/17 13:38:15;;;;;;;1.93;1.83;;;;;;;;;;5014239;28;20837;-71
2022/07/17 13:40:41;;;;;;;1.80;1.70;;;;;;;;;;5014182;28;20869;-67
2022/07/17 13:43:07;;;;;;;4.50;1.93;;;;;;;;;;5014072;28;20819;-68
2022/07/17 13:45:33;;;;;;;4.83;1.97;;;;;;;;;;5014111;28;20896;-67
2022/07/17 13:47:59;;;;;;;2.40;1.80;;;;;;;;;;5013963;28;20518;-70
2022/07/17 13:50:26;;;;;;;2.20;2.10;;;;;;;;;;5013631;28;20414;-69
2022/07/17 13:52:52;;;;;;;2.17;1.97;;;;;;;;;;5013973;28;20405;-68
2022/07/17 13:55:18;;;;;;;2.20;2.10;;;;;;;;;;5013884;28;20492;-70
2022/07/17 13:57:44;;;;;;;1.90;1.80;;;;;;;;;;5013950;28;20413;-69
2022/07/17 14:00:11;;;;;;;2.93;2.00;;;;;;;;;;5013851;28;20409;-69
2022/07/17 14:02:38;;;;;;;2.67;1.70;;;;;;;;;;5013840;28;20421;-70
2022/07/17 14:05:04;;;;;;;1.87;1.87;;;;;;;;;;5013855;28;20397;-70
2022/07/17 14:07:30;;;;;;;2.20;2.10;;;;;;;;;;5013785;28;20531;-69
2022/07/17 14:09:56;;;;;;;4.63;1.63;;;;;;;;;;5013856;28;20405;-68
2022/07/17 14:12:22;;;;;;;1.63;1.53;;;;;;;;;;5013791;28;20462;-67
2022/07/17 14:14:48;;;;;;;4.60;1.90;;;;;;;;;;5013778;28;20400;-68
2022/07/17 14:17:17;;;;;;;4.90;2.00;;;;;;;;;;4995990;28;20893;-69
2022/07/17 14:19:43;;;;;;;2.30;1.30;;;;;;;;;;5013630;28;20448;-69
2022/07/17 14:22:09;;;;;;;2.30;1.77;;;;;;;;;;5013589;28;20440;-69
2022/07/17 14:24:35;;;;;;;1.80;1.80;;;;;;;;;;5013692;28;20447;-73
2022/07/17 14:27:01;;;;;;;4.77;2.10;;;;;;;;;;5013651;28;20463;-69
2022/07/17 14:29:27;;;;;;;3.57;2.00;;;;;;;;;;5013354;28;20934;-67
2022/07/17 14:31:53;;;;;;;2.60;2.40;;;;;;;;;;5013510;28;20425;-71
2022/07/17 14:34:19;;;;;;;2.20;2.10;;;;;;;;;;5013487;28;20771;-69
2022/07/17 14:36:45;;;;;;;2.10;2.00;;;;;;;;;;5013427;28;20504;-70
2022/07/17 14:39:11;;;;;;;1.97;1.87;;;;;;;;;;5013706;28;20542;-68
2022/07/17 14:41:38;;;;;;;1.60;1.50;;;;;;;;;;5013445;28;20509;-70
2022/07/17 14:44:04;;;;;;;2.50;1.70;;;;;;;;;;5013502;28;20412;-69